createdAt,value
2022-11-03T00:00:12.413Z,99274.78
2022-11-03T00:02:39.536Z,99270.19
2022-11-03T00:05:06.157Z,99265.88
2022-11-03T00:07:32.716Z,99265.88
2022-11-03T00:09:59.340Z,99275.19
2022-11-03T00:12:25.739Z,99271.41
2022-11-03T00:14:52.139Z,99270.72
2022-11-03T00:17:18.543Z,99270.88
2022-11-03T00:19:45.198Z,99273.53
2022-11-03T00:22:11.645Z,99270.06
2022-11-03T00:24:37.950Z,99266.56
2022-11-03T00:27:04.463Z,99264.06
2022-11-03T00:29:30.996Z,99253.63
2022-11-03T00:31:57.319Z,99250.97
2022-11-03T00:34:23.802Z,99252.13
2022-11-03T00:36:50.282Z,99251.59
2022-11-03T00:39:16.752Z,99240.31
2022-11-03T00:41:43.081Z,99249.09
2022-11-03T00:44:09.473Z,99243.25
2022-11-03T00:46:36.295Z,99235.44
2022-11-03T00:49:06.360Z,99234.25
2022-11-03T00:51:33.504Z,99224.78
2022-11-03T00:54:02.194Z,99219.94
2022-11-03T00:56:31.442Z,99217.44
2022-11-03T00:58:59.228Z,99213.03
2022-11-03T01:01:28.216Z,99208.03
2022-11-03T01:03:56.840Z,99205.78
2022-11-03T01:06:23.356Z,99207.88
2022-11-03T01:08:49.637Z,99213.50
2022-11-03T01:11:22.226Z,99212.44
2022-11-03T01:13:48.730Z,99200.50
2022-11-03T01:16:15.246Z,99200.78
2022-11-03T01:18:42.009Z,99200.22
2022-11-03T01:21:08.498Z,99193.44
2022-11-03T01:23:35.730Z,99192.44
2022-11-03T01:26:06.660Z,99190.25
2022-11-03T01:28:36.705Z,99188.56
2022-11-03T01:31:17.070Z,99191.63
2022-11-03T01:33:44.250Z,99188.72
2022-11-03T01:36:10.613Z,99185.94
2022-11-03T01:38:37.187Z,99179.28
2022-11-03T01:41:05.759Z,99174.00
2022-11-03T01:43:32.580Z,99169.13
2022-11-03T01:46:10.840Z,99159.78
2022-11-03T01:48:43.073Z,99158.13
2022-11-03T01:51:13.208Z,99162.06
2022-11-03T01:53:43.912Z,99162.84
2022-11-03T01:56:12.401Z,99159.22
2022-11-03T01:58:41.555Z,99166.47
2022-11-03T02:01:08.162Z,99159.94
2022-11-03T02:03:39.395Z,99160.38
2022-11-03T02:06:06.865Z,99158.19
2022-11-03T02:08:41.432Z,99155.94
2022-11-03T02:11:07.989Z,99150.97
2022-11-03T02:13:34.362Z,99144.16
2022-11-03T02:16:01.020Z,99137.38
2022-11-03T02:18:31.644Z,99129.56
2022-11-03T02:21:09.306Z,99121.53
2022-11-03T02:24:01.649Z,99118.72
2022-11-03T02:26:28.229Z,99119.50
2022-11-03T02:28:54.918Z,99118.38
2022-11-03T02:31:42.111Z,99123.97
2022-11-03T02:34:16.264Z,99118.97
2022-11-03T02:36:59.191Z,99121.06
2022-11-03T02:39:38.500Z,99111.63
2022-11-03T02:42:06.799Z,99114.84
2022-11-03T02:44:34.223Z,99114.31
2022-11-03T02:47:06.925Z,99113.63
2022-11-03T02:49:39.412Z,99108.34
2022-11-03T02:52:06.740Z,99115.28
2022-11-03T02:54:43.677Z,99113.75
2022-11-03T02:57:14.378Z,99112.78
2022-11-03T02:59:50.165Z,99106.41
2022-11-03T03:02:24.107Z,99093.38
2022-11-03T03:04:56.075Z,99087.94
2022-11-03T03:07:27.699Z,99085.00
2022-11-03T03:10:01.708Z,99077.25
2022-11-03T03:12:28.587Z,99069.56
2022-11-03T03:14:58.157Z,99068.72
2022-11-03T03:17:40.341Z,99414.03
2022-11-03T03:20:24.940Z,99416.13
2022-11-03T03:23:06.210Z,99399.84
2022-11-03T03:25:49.212Z,99402.47
2022-11-03T03:28:37.561Z,99395.09
2022-11-03T03:31:08.963Z,99409.41
2022-11-03T03:33:35.852Z,99409.13
2022-11-03T03:36:06.398Z,99395.34
2022-11-03T03:38:38.574Z,99380.63
2022-11-03T03:41:10.704Z,99381.44
2022-11-03T03:43:37.899Z,99382.72
2022-11-03T03:46:08.056Z,99386.72
2022-11-03T03:48:34.950Z,99382.84
2022-11-03T03:51:02.431Z,99372.97
2022-11-03T03:53:30.277Z,99373.09
2022-11-03T03:55:58.040Z,99359.75
2022-11-03T03:58:24.346Z,99343.47
2022-11-03T04:00:50.844Z,99348.06
2022-11-03T04:03:19.930Z,99337.09
2022-11-03T04:05:47.283Z,99325.88
2022-11-03T04:08:14.601Z,99317.22
2022-11-03T04:10:41.098Z,99324.44
2022-11-03T04:13:08.715Z,99308.19
2022-11-03T04:15:35.918Z,99312.78
2022-11-03T04:18:02.540Z,99296.22
2022-11-03T04:20:29.085Z,99293.88
2022-11-03T04:22:55.528Z,99286.22
2022-11-03T04:25:21.972Z,99279.28
2022-11-03T04:27:48.379Z,99280.38
2022-11-03T04:30:20.369Z,99274.53
2022-11-03T04:32:48.827Z,99274.97
2022-11-03T04:35:20.579Z,99275.53
2022-11-03T04:37:51.929Z,99276.34
2022-11-03T04:40:19.013Z,99264.25
2022-11-03T04:42:45.538Z,99262.19
2022-11-03T04:45:32.915Z,99266.25
2022-11-03T04:48:01.678Z,99268.72
2022-11-03T04:50:28.339Z,99258.31
2022-11-03T04:52:58.723Z,99253.88
2022-11-03T04:55:25.926Z,99248.28
2022-11-03T04:58:00.192Z,99252.88
2022-11-03T05:00:26.719Z,99252.88
2022-11-03T05:02:56.036Z,99257.31
2022-11-03T05:05:25.881Z,99252.59
2022-11-03T05:07:54.685Z,99250.53
2022-11-03T05:10:25.874Z,99248.88
2022-11-03T05:12:54.395Z,99247.63
2022-11-03T05:15:41.135Z,99233.06
2022-11-03T05:18:38.865Z,99232.50
2022-11-03T05:21:12.305Z,99240.16
2022-11-03T05:23:41.556Z,99231.69
2022-11-03T05:26:19.901Z,99220.00
2022-11-03T05:28:50.751Z,99211.66
2022-11-03T05:31:27.587Z,99212.78
2022-11-03T05:33:57.531Z,99206.38
2022-11-03T05:36:26.419Z,99198.44
2022-11-03T05:38:58.567Z,99190.66
2022-11-03T05:41:27.166Z,99195.50
2022-11-03T05:44:02.247Z,99198.84
2022-11-03T05:46:33.820Z,99200.94
2022-11-03T05:49:02.370Z,99205.69
2022-11-03T05:51:34.398Z,99211.78
2022-11-03T05:54:04.508Z,99214.84
2022-11-03T05:56:32.097Z,99203.72
2022-11-03T05:59:00.151Z,99199.88
2022-11-03T06:01:34.804Z,99198.72
2022-11-03T06:04:07.128Z,99193.88
2022-11-03T06:06:38.094Z,99193.44
2022-11-03T06:09:19.631Z,99201.78
2022-11-03T06:11:46.299Z,99163.84
2022-11-03T06:14:21.237Z,99162.59
2022-11-03T06:16:58.025Z,99154.88
2022-11-03T06:19:35.598Z,99137.06
2022-11-03T06:22:20.070Z,99131.41
2022-11-03T06:24:47.258Z,99125.84
2022-11-03T06:27:20.606Z,99116.41
2022-11-03T06:29:50.789Z,99108.88
2022-11-03T06:32:17.986Z,99101.66
2022-11-03T06:34:48.604Z,99087.34
2022-11-03T06:37:27.340Z,99091.53
2022-11-03T06:39:59.866Z,99094.84
2022-11-03T06:42:31.618Z,99072.50
2022-11-03T06:44:58.820Z,99078.72
2022-11-03T06:47:27.684Z,99077.34
2022-11-03T06:49:56.681Z,99070.66
2022-11-03T06:52:23.370Z,99079.84
2022-11-03T06:54:54.128Z,99091.66
2022-11-03T06:57:20.606Z,99090.72
2022-11-03T06:59:47.028Z,99088.47
2022-11-03T07:02:47.988Z,99093.16
2022-11-03T07:05:22.869Z,99103.44
2022-11-03T07:07:52.329Z,99084.25
2022-11-03T07:10:18.825Z,99082.94
2022-11-03T07:12:45.767Z,99087.50
2022-11-03T07:15:22.992Z,99083.06
2022-11-03T07:17:49.419Z,99085.19
2022-11-03T07:20:16.495Z,99091.59
2022-11-03T07:22:44.539Z,99087.31
2022-11-03T07:25:17.648Z,99081.34
2022-11-03T07:27:44.204Z,99091.44
2022-11-03T07:30:18.621Z,99097.75
2022-11-03T07:32:45.274Z,99107.88
2022-11-03T07:35:17.821Z,99108.88
2022-11-03T07:37:49.602Z,99131.25
2022-11-03T07:40:23.274Z,99136.94
2022-11-03T07:42:50.872Z,99147.47
2022-11-03T07:45:51.470Z,99156.31
2022-11-03T07:48:28.486Z,99166.91
2022-11-03T07:50:59.162Z,99168.81
2022-11-03T07:53:36.922Z,99113.78
2022-11-03T07:56:15.521Z,99105.91
2022-11-03T07:58:42.554Z,99104.38
2022-11-03T08:01:30.143Z,99078.25
2022-11-03T08:04:00.769Z,99044.22
2022-11-03T08:06:27.384Z,98718.59
2022-11-03T08:08:53.973Z,98720.59
2022-11-03T08:11:23.212Z,98713.31
2022-11-03T08:13:52.971Z,98711.75
2022-11-03T08:16:20.226Z,98705.53
2022-11-03T08:18:47.080Z,98702.38
2022-11-03T08:21:13.705Z,98707.28
2022-11-03T08:23:43.236Z,98695.25
2022-11-03T08:26:13.635Z,98681.47
2022-11-03T08:28:40.072Z,98673.69
2022-11-03T08:31:11.143Z,98670.00
2022-11-03T08:33:39.108Z,98656.94
2022-11-03T08:36:06.154Z,98641.53
2022-11-03T08:38:32.693Z,98638.53
2022-11-03T08:40:59.243Z,98634.66
2022-11-03T08:43:26.164Z,98638.59
2022-11-03T08:45:53.100Z,98649.91
2022-11-03T08:48:21.160Z,98649.22
2022-11-03T08:50:48.071Z,98644.50
2022-11-03T08:53:14.928Z,98633.06
2022-11-03T08:55:41.478Z,98628.75
2022-11-03T08:58:08.351Z,98622.22
2022-11-03T09:00:40.548Z,98621.59
2022-11-03T09:03:07.558Z,98614.06
2022-11-03T09:05:33.956Z,98620.50
2022-11-03T09:10:47.414Z,98607.66
2022-11-03T09:13:14.124Z,98610.91
2022-11-03T09:15:40.747Z,98611.69
2022-11-03T09:18:07.324Z,98614.56
2022-11-03T09:20:34.169Z,98616.63
2022-11-03T09:23:00.562Z,98620.50
2022-11-03T09:25:27.068Z,98611.25
2022-11-03T09:27:53.569Z,98616.69
2022-11-03T09:30:20.025Z,98618.97
2022-11-03T09:32:46.580Z,98610.78
2022-11-03T09:35:13.267Z,98599.22
2022-11-03T09:37:39.729Z,98600.59
2022-11-03T09:40:07.015Z,98600.84
2022-11-03T09:42:34.568Z,98590.88
2022-11-03T09:45:02.026Z,98589.38
2022-11-03T09:47:38.136Z,98587.75
2022-11-03T09:50:06.046Z,98581.88
2022-11-03T09:52:34.527Z,98584.56
2022-11-03T09:55:00.899Z,98584.78
2022-11-03T09:57:28.267Z,98577.97
2022-11-03T09:59:55.658Z,98577.09
2022-11-03T10:02:25.045Z,98564.69
2022-11-03T10:04:53.846Z,98567.69
2022-11-03T10:07:21.263Z,98557.13
2022-11-03T10:09:50.981Z,98552.84
2022-11-03T10:12:17.906Z,98543.53
2022-11-03T10:14:45.841Z,98540.59
2022-11-03T10:17:20.978Z,98527.50
2022-11-03T10:19:52.685Z,98530.56
2022-11-03T10:22:22.650Z,98525.09
2022-11-03T10:24:49.340Z,98523.78
2022-11-03T10:27:23.726Z,98524.25
2022-11-03T10:30:08.831Z,98516.81
2022-11-03T10:32:35.746Z,98511.94
2022-11-03T10:35:32.640Z,98508.91
2022-11-03T10:38:32.429Z,98502.97
2022-11-03T10:41:15.347Z,98497.84
2022-11-03T10:43:44.936Z,98485.53
2022-11-03T10:46:36.409Z,98485.13
2022-11-03T10:49:14.342Z,98472.63
2022-11-03T10:51:43.047Z,98455.53
2022-11-03T10:54:14.193Z,98455.75
2022-11-03T10:56:41.150Z,98468.50
2022-11-03T10:59:18.586Z,98458.66
2022-11-03T11:01:45.507Z,98453.50
2022-11-03T11:04:16.402Z,98459.00
2022-11-03T11:06:42.996Z,98447.88
2022-11-03T11:09:13.282Z,98448.41
2022-11-03T11:11:39.886Z,98436.19
2022-11-03T11:14:28.287Z,98448.13
2022-11-03T11:16:57.250Z,98442.00
2022-11-03T11:19:25.608Z,98429.66
2022-11-03T11:21:54.893Z,98416.88
2022-11-03T11:24:43.070Z,98413.31
2022-11-03T11:27:31.408Z,98397.13
2022-11-03T11:29:59.396Z,98402.81
2022-11-03T11:32:44.636Z,98387.50
2022-11-03T11:35:26.480Z,98381.59
2022-11-03T11:37:53.886Z,98387.19
2022-11-03T11:40:23.245Z,98379.88
2022-11-03T11:43:01.479Z,98381.84
2022-11-03T11:46:05.188Z,98375.91
2022-11-03T11:48:31.962Z,98372.06
2022-11-03T11:51:03.000Z,98365.25
2022-11-03T11:53:38.792Z,98362.19
2022-11-03T11:56:05.587Z,98348.81
2022-11-03T11:58:31.988Z,98344.91
2022-11-03T12:01:01.417Z,98328.31
2022-11-03T12:03:32.322Z,98339.47
2022-11-03T12:05:59.001Z,98324.19
2022-11-03T12:08:27.748Z,98322.03
2022-11-03T12:11:03.127Z,98317.09
2022-11-03T12:13:50.014Z,98307.72
2022-11-03T12:16:52.243Z,98304.81
2022-11-03T12:19:50.243Z,98292.19
2022-11-03T12:22:26.043Z,98282.88
2022-11-03T12:24:59.611Z,98272.97
2022-11-03T12:27:26.397Z,98265.66
2022-11-03T12:30:04.557Z,98262.25
2022-11-03T12:32:34.614Z,98259.19
2022-11-03T12:35:06.084Z,98258.88
2022-11-03T12:37:32.571Z,98265.97
2022-11-03T12:39:59.015Z,98255.28
2022-11-03T12:42:25.703Z,98247.56
2022-11-03T12:44:53.081Z,98252.91
2022-11-03T12:47:20.040Z,98242.06
2022-11-03T12:49:46.514Z,98237.09
2022-11-03T12:52:13.167Z,98239.38
2022-11-03T12:54:39.515Z,98228.25
2022-11-03T12:57:05.955Z,98217.00
2022-11-03T12:59:32.454Z,98213.16
2022-11-03T13:01:59.062Z,98213.16
2022-11-03T13:04:25.653Z,98206.66
2022-11-03T13:06:52.052Z,98193.97
2022-11-03T13:09:18.386Z,98192.84
2022-11-03T13:11:44.817Z,98184.00
2022-11-03T13:14:12.131Z,98175.28
2022-11-03T13:16:38.601Z,98169.13
2022-11-03T13:19:04.927Z,98155.72
2022-11-03T13:21:31.349Z,98156.25
2022-11-03T13:23:57.816Z,98146.38
2022-11-03T13:26:24.404Z,98134.31
2022-11-03T13:28:50.741Z,98133.06
2022-11-03T13:31:17.373Z,98127.25
2022-11-03T13:33:43.771Z,98119.59
2022-11-03T13:36:10.410Z,98110.84
2022-11-03T13:38:37.024Z,98107.63
2022-11-03T13:41:08.366Z,98104.34
2022-11-03T13:43:35.521Z,98096.84
2022-11-03T13:46:02.171Z,98094.53
2022-11-03T13:51:15.471Z,98091.66
2022-11-03T13:56:28.659Z,98082.81
2022-11-03T14:01:42.078Z,98075.22
2022-11-03T14:06:55.562Z,98065.53
2022-11-03T14:09:22.037Z,98055.66
2022-11-03T14:11:48.949Z,98037.16
2022-11-03T14:14:15.464Z,98041.22
2022-11-03T14:16:42.128Z,98027.25
2022-11-03T14:19:08.715Z,98026.59
2022-11-03T14:21:35.053Z,98020.28
2022-11-03T14:24:01.621Z,98012.38
2022-11-03T14:26:41.742Z,98009.94
2022-11-03T14:29:09.799Z,98002.34
2022-11-03T14:31:36.282Z,98005.47
2022-11-03T14:34:04.101Z,98010.22
2022-11-03T14:36:30.457Z,98017.69
2022-11-03T14:38:56.864Z,98013.81
2022-11-03T14:41:23.222Z,98015.00
2022-11-03T14:43:49.749Z,98023.03
2022-11-03T14:46:16.319Z,98016.63
2022-11-03T14:48:42.757Z,98012.78
2022-11-03T14:51:09.327Z,98010.22
2022-11-03T14:53:35.798Z,97997.28
2022-11-03T14:56:02.337Z,97983.59
2022-11-03T14:58:28.757Z,97982.72
2022-11-03T15:00:55.386Z,97972.34
2022-11-03T15:03:21.833Z,97957.53
2022-11-03T15:05:48.188Z,97952.34
2022-11-03T15:08:17.551Z,97954.06
2022-11-03T15:10:44.388Z,97944.88
2022-11-03T15:13:10.805Z,97935.69
2022-11-03T15:15:37.504Z,97928.22
2022-11-03T15:18:04.185Z,97917.28
2022-11-03T15:20:31.238Z,97919.97
2022-11-03T15:25:44.357Z,97893.66
2022-11-03T15:28:11.046Z,97903.56
2022-11-03T15:30:38.143Z,97912.25
2022-11-03T15:33:04.701Z,97902.31
2022-11-03T15:35:31.114Z,97894.38
2022-11-03T15:37:57.483Z,97895.28
2022-11-03T15:40:23.834Z,97895.69
2022-11-03T15:42:50.236Z,97904.38
2022-11-03T15:45:16.837Z,97890.31
2022-11-03T15:47:43.549Z,97880.88
2022-11-03T15:50:11.445Z,97869.44
2022-11-03T15:52:38.643Z,97856.84
2022-11-03T15:55:06.541Z,97856.16
2022-11-03T15:57:33.855Z,97856.91
2022-11-03T16:00:00.799Z,97851.22
2022-11-03T16:02:40.912Z,97847.22
2022-11-03T16:05:08.783Z,97847.69
2022-11-03T16:07:35.181Z,97842.44
2022-11-03T16:10:01.779Z,97842.34
2022-11-03T16:12:28.486Z,97842.22
2022-11-03T16:14:54.857Z,97831.06
2022-11-03T16:17:21.154Z,97829.88
2022-11-03T16:19:48.107Z,97832.03
2022-11-03T16:22:14.740Z,97823.75
2022-11-03T16:24:41.589Z,97809.06
2022-11-03T16:27:08.124Z,97791.50
2022-11-03T16:29:34.753Z,97783.94
2022-11-03T16:32:01.292Z,97776.34
2022-11-03T16:34:27.747Z,97793.19
2022-11-03T16:36:54.273Z,97781.25
2022-11-03T16:39:20.645Z,97777.16
2022-11-03T16:41:47.029Z,97795.19
2022-11-03T16:44:13.602Z,97789.84
2022-11-03T16:46:40.113Z,97781.34
2022-11-03T16:49:06.545Z,97773.63
2022-11-03T16:51:33.006Z,97771.84
2022-11-03T16:53:59.526Z,97777.44
2022-11-03T16:56:25.833Z,97770.28
2022-11-03T16:58:52.507Z,97767.75
2022-11-03T17:01:19.261Z,97764.94
2022-11-03T17:03:45.666Z,97760.00
2022-11-03T17:06:12.058Z,97767.84
2022-11-03T17:08:52.456Z,97763.56
2022-11-03T17:11:20.204Z,97767.41
2022-11-03T17:13:46.613Z,97762.06
2022-11-03T17:16:12.971Z,97757.41
2022-11-03T17:18:39.533Z,97766.31
2022-11-03T17:21:06.143Z,97766.16
2022-11-03T17:23:32.582Z,97762.44
2022-11-03T17:26:00.768Z,97757.53
2022-11-03T17:28:27.275Z,97763.72
2022-11-03T17:30:53.691Z,97759.03
2022-11-03T17:33:20.058Z,97753.69
2022-11-03T17:35:46.877Z,97764.38
2022-11-03T17:38:16.234Z,97756.81
2022-11-03T17:40:44.878Z,97766.69
2022-11-03T17:43:21.292Z,97769.81
2022-11-03T17:45:47.845Z,97775.75
2022-11-03T17:48:14.733Z,97773.53
2022-11-03T17:50:51.920Z,97769.59
2022-11-03T17:53:22.187Z,97768.63
2022-11-03T17:56:08.999Z,97769.47
2022-11-03T17:58:41.744Z,97770.13
2022-11-03T18:01:12.999Z,97767.09
2022-11-03T18:03:39.403Z,97761.38
2022-11-03T18:06:14.980Z,97749.97
2022-11-03T18:08:41.631Z,97745.88
2022-11-03T18:11:09.165Z,97739.72
2022-11-03T18:13:35.544Z,97726.38
2022-11-03T18:16:11.877Z,97722.88
2022-11-03T18:18:41.573Z,97726.81
2022-11-03T18:21:13.699Z,97724.38
2022-11-03T18:23:40.080Z,97716.16
2022-11-03T18:26:26.501Z,97711.81
2022-11-03T18:28:53.365Z,97711.81
2022-11-03T18:31:43.006Z,97714.50
2022-11-03T18:34:19.652Z,97712.88
2022-11-03T18:36:46.267Z,97702.41
2022-11-03T18:39:21.246Z,97710.03
2022-11-03T18:41:47.764Z,97711.09
2022-11-03T18:44:21.723Z,97715.63
2022-11-03T18:46:49.146Z,97707.81
2022-11-03T18:49:16.025Z,97718.72
2022-11-03T18:51:47.848Z,97737.16
2022-11-03T18:56:46.583Z,97734.06
2022-11-03T18:59:23.994Z,97723.63
2022-11-03T19:01:51.212Z,97716.63
2022-11-03T19:04:18.262Z,97707.16
2022-11-03T19:06:46.787Z,97699.75
2022-11-03T19:09:15.784Z,97680.25
2022-11-03T19:11:43.568Z,97665.66
2022-11-03T19:14:16.256Z,97651.19
2022-11-03T19:17:01.998Z,97650.81
2022-11-03T19:19:30.282Z,97642.44
2022-11-03T19:21:56.869Z,97642.44
2022-11-03T19:24:23.553Z,97632.00
2022-11-03T19:26:59.274Z,97625.47
2022-11-03T19:29:31.643Z,97607.69
2022-11-03T19:31:58.487Z,97618.59
2022-11-03T19:34:28.176Z,97616.53
2022-11-03T19:36:54.799Z,97627.19
2022-11-03T19:39:24.338Z,97644.91
2022-11-03T19:41:51.148Z,97644.09
2022-11-03T19:44:17.550Z,97645.25
2022-11-03T19:46:44.057Z,97644.81
2022-11-03T19:49:13.987Z,97641.09
2022-11-03T19:51:40.681Z,97634.97
2022-11-03T19:54:15.365Z,97636.00
2022-11-03T19:56:42.215Z,97630.66
2022-11-03T19:59:12.257Z,97637.25
2022-11-03T20:01:38.916Z,97614.28
2022-11-03T20:04:05.738Z,97612.50
2022-11-03T20:06:33.122Z,97608.44
2022-11-03T20:09:01.216Z,97603.91
2022-11-03T20:11:27.895Z,97623.63
2022-11-03T20:13:54.723Z,97618.50
2022-11-03T20:16:21.445Z,97632.88
2022-11-03T20:18:47.873Z,97643.13
2022-11-03T20:21:15.983Z,97637.19
2022-11-03T20:23:43.232Z,97639.84
2022-11-03T20:26:16.446Z,97642.97
2022-11-03T20:28:43.620Z,97627.63
2022-11-03T20:31:12.332Z,97618.81
2022-11-03T20:33:39.467Z,97611.84
2022-11-03T20:36:06.413Z,97622.13
2022-11-03T20:38:33.476Z,97631.75
2022-11-03T20:41:04.027Z,97626.88
2022-11-03T20:43:31.958Z,97625.47
2022-11-03T20:45:59.546Z,97635.53
2022-11-03T20:48:26.384Z,97627.00
2022-11-03T20:50:54.497Z,97627.38
2022-11-03T20:53:23.506Z,97628.22
2022-11-03T20:55:50.681Z,97648.50
2022-11-03T20:58:18.778Z,97653.22
2022-11-03T21:00:48.479Z,97671.59
2022-11-03T21:03:44.980Z,97667.75
2022-11-03T21:06:13.293Z,97679.22
2022-11-03T21:08:39.743Z,97683.31
2022-11-03T21:11:14.662Z,97685.13
2022-11-03T21:13:41.195Z,97694.41
2022-11-03T21:16:24.016Z,97704.88
2022-11-03T21:18:51.065Z,97696.63
2022-11-03T21:21:20.922Z,97702.41
2022-11-03T21:23:47.821Z,97707.31
2022-11-03T21:26:14.439Z,97709.19
2022-11-03T21:28:40.905Z,97704.28
2022-11-03T21:31:13.048Z,97711.28
2022-11-03T21:33:40.666Z,98093.09
2022-11-03T21:36:07.579Z,98087.75
2022-11-03T21:38:33.943Z,98077.50
2022-11-03T21:41:00.367Z,98064.97
2022-11-03T21:43:26.854Z,98051.47
2022-11-03T21:45:53.288Z,98048.41
2022-11-03T21:48:20.130Z,98044.72
2022-11-03T21:50:46.983Z,98048.00
2022-11-03T21:53:13.642Z,98046.97
2022-11-03T21:55:40.724Z,98068.09
2022-11-03T21:58:07.640Z,98071.59
2022-11-03T22:00:34.557Z,98071.41
2022-11-03T22:03:01.642Z,98070.59
2022-11-03T22:05:28.300Z,98074.91
2022-11-03T22:07:54.854Z,98062.63
2022-11-03T22:10:21.247Z,98027.13
2022-11-03T22:12:47.702Z,98019.56
2022-11-03T22:15:14.140Z,98020.16
2022-11-03T22:17:40.583Z,98000.06
2022-11-03T22:20:07.406Z,98006.00
2022-11-03T22:22:33.903Z,98003.16
2022-11-03T22:25:00.634Z,98004.78
2022-11-03T22:27:28.463Z,98021.56
2022-11-03T22:29:55.290Z,98017.47
2022-11-03T22:32:21.792Z,98023.22
2022-11-03T22:34:48.195Z,98034.28
2022-11-03T22:37:14.824Z,98032.22
2022-11-03T22:39:41.429Z,98063.38
2022-11-03T22:42:10.885Z,98065.66
2022-11-03T22:44:37.570Z,98085.94
2022-11-03T22:47:06.774Z,98093.94
2022-11-03T22:49:34.790Z,98097.41
2022-11-03T22:52:01.408Z,98090.84
2022-11-03T22:54:27.764Z,98097.22
2022-11-03T22:56:54.190Z,98086.56
2022-11-03T22:59:21.302Z,98107.88
2022-11-03T23:01:47.836Z,98104.19
2022-11-03T23:04:14.226Z,98095.38
2022-11-03T23:06:40.953Z,98074.47
2022-11-03T23:09:08.842Z,98080.00
2022-11-03T23:11:35.297Z,98099.91
2022-11-03T23:14:07.247Z,98103.38
2022-11-03T23:16:35.873Z,98104.84
2022-11-03T23:19:03.496Z,98094.16
2022-11-03T23:21:30.951Z,98098.25
2022-11-03T23:23:58.152Z,98099.50
2022-11-03T23:26:26.468Z,98098.06
2022-11-03T23:28:53.068Z,98081.84
2022-11-03T23:31:19.497Z,98085.97
2022-11-03T23:33:45.892Z,98096.00
2022-11-03T23:36:14.559Z,98110.56
2022-11-03T23:38:42.490Z,98112.00
2022-11-03T23:41:17.474Z,98109.56
2022-11-03T23:43:45.151Z,98112.63
2022-11-03T23:46:13.842Z,98123.28
2022-11-03T23:48:40.392Z,98110.38
2022-11-03T23:51:06.934Z,98099.91
2022-11-03T23:53:33.371Z,98108.94
2022-11-03T23:56:00.411Z,98107.91
2022-11-03T23:58:26.940Z,98100.94
